createdAt,value
2018-07-22T00:04:48.977Z,34.60
2018-07-22T00:09:46.505Z,33.80
2018-07-22T00:14:44.002Z,34.83
2018-07-22T00:19:41.501Z,35.63
2018-07-22T00:24:38.996Z,37.07
2018-07-22T00:29:36.471Z,34.40
2018-07-22T00:34:33.963Z,32.67
2018-07-22T00:39:31.477Z,32.60
2018-07-22T00:44:28.990Z,34.10
2018-07-22T00:49:26.493Z,31.23
2018-07-22T00:54:24.180Z,41.30
2018-07-22T00:59:21.828Z,35.17
2018-07-22T01:04:19.356Z,34.23
2018-07-22T01:09:16.871Z,32.43
2018-07-22T01:14:14.386Z,33.80
2018-07-22T01:19:11.902Z,32.03
2018-07-22T01:24:09.476Z,31.40
2018-07-22T01:29:07.008Z,31.50
2018-07-22T01:34:04.516Z,51.80
2018-07-22T01:39:02.051Z,35.20
2018-07-22T01:43:59.542Z,34.97
2018-07-22T01:48:57.040Z,37.23
2018-07-22T01:53:54.539Z,38.77
2018-07-22T01:58:52.110Z,36.27
2018-07-22T02:03:49.628Z,47.30
2018-07-22T02:08:47.160Z,38.30
2018-07-22T02:13:44.663Z,39.67
2018-07-22T02:18:42.163Z,45.87
2018-07-22T02:23:39.690Z,38.80
2018-07-22T02:28:37.184Z,45.60
2018-07-22T02:33:34.675Z,42.77
2018-07-22T02:38:32.192Z,46.40
2018-07-22T02:43:29.715Z,47.40
2018-07-22T02:48:27.196Z,45.93
2018-07-22T02:53:24.705Z,50.23
2018-07-22T02:58:22.215Z,48.87
2018-07-22T03:03:19.776Z,50.03
2018-07-22T03:08:17.306Z,47.13
2018-07-22T03:13:14.831Z,43.40
2018-07-22T03:18:12.880Z,57.77
2018-07-22T03:23:10.476Z,50.27
2018-07-22T03:28:08.252Z,51.13
2018-07-22T03:33:05.822Z,46.27
2018-07-22T03:38:03.388Z,62.70
2018-07-22T03:43:00.918Z,52.40
2018-07-22T03:47:58.484Z,53.40
2018-07-22T03:52:56.017Z,54.67
2018-07-22T03:57:53.658Z,56.63
2018-07-22T04:02:51.196Z,57.07
2018-07-22T04:07:48.725Z,56.23
2018-07-22T04:12:46.253Z,57.70
2018-07-22T04:17:43.779Z,59.00
2018-07-22T04:22:41.315Z,53.90
2018-07-22T04:27:38.918Z,53.43
2018-07-22T04:32:36.442Z,56.90
2018-07-22T04:37:34.013Z,52.90
2018-07-22T04:42:31.529Z,54.37
2018-07-22T04:47:29.053Z,56.13
2018-07-22T04:52:26.567Z,60.90
2018-07-22T04:57:24.126Z,54.57
2018-07-22T05:02:22.466Z,59.70
2018-07-22T05:07:19.988Z,59.67
2018-07-22T05:12:17.618Z,56.37
2018-07-22T05:17:15.244Z,50.87
2018-07-22T05:22:12.819Z,60.47
2018-07-22T05:27:10.388Z,54.70
2018-07-22T05:32:07.959Z,57.20
2018-07-22T05:37:05.554Z,63.13
2018-07-22T05:42:04.601Z,58.83
2018-07-22T05:47:02.264Z,60.53
2018-07-22T05:51:59.782Z,57.33
2018-07-22T05:56:57.321Z,54.37
2018-07-22T06:01:54.913Z,52.20
2018-07-22T06:06:52.449Z,53.43
2018-07-22T06:11:55.315Z,51.07
2018-07-22T06:16:52.874Z,47.07
2018-07-22T06:21:50.398Z,48.80
2018-07-22T06:26:47.936Z,47.60
2018-07-22T06:31:45.777Z,46.37
2018-07-22T06:36:43.422Z,49.10
2018-07-22T06:41:49.458Z,42.20
2018-07-22T06:46:47.069Z,44.87
2018-07-22T06:51:44.609Z,43.00
2018-07-22T06:56:42.165Z,40.83
2018-07-22T07:01:39.791Z,39.27
2018-07-22T07:06:37.351Z,35.60
2018-07-22T07:11:43.038Z,37.57
2018-07-22T07:16:40.665Z,39.17
2018-07-22T07:21:38.210Z,35.60
2018-07-22T07:26:35.831Z,43.20
2018-07-22T07:31:33.513Z,45.10
2018-07-22T07:36:31.756Z,51.37
2018-07-22T07:41:34.831Z,51.70
2018-07-22T07:46:35.623Z,42.23
2018-07-22T07:51:33.465Z,43.73
2018-07-22T07:56:31.040Z,40.03
2018-07-22T08:01:28.901Z,44.57
2018-07-22T08:06:26.481Z,35.17
2018-07-22T08:11:33.380Z,39.77
2018-07-22T08:16:30.977Z,35.10
2018-07-22T08:21:28.658Z,38.40
2018-07-22T08:26:26.149Z,48.30
2018-07-22T08:31:23.694Z,43.93
2018-07-22T08:36:21.229Z,42.60
2018-07-22T08:41:22.832Z,32.73
2018-07-22T08:46:20.540Z,39.60
2018-07-22T08:51:18.105Z,41.07
2018-07-22T08:56:15.666Z,35.20
2018-07-22T09:01:13.276Z,38.27
2018-07-22T09:06:10.909Z,38.37
2018-07-22T09:11:10.105Z,38.07
2018-07-22T09:16:07.932Z,32.60
2018-07-22T09:21:05.664Z,29.47
2018-07-22T09:26:03.251Z,30.87
2018-07-22T09:31:00.873Z,30.97
2018-07-22T09:35:58.454Z,31.33
2018-07-22T09:40:59.089Z,26.73
2018-07-22T09:45:56.832Z,32.53
2018-07-22T09:50:54.535Z,25.47
2018-07-22T09:55:52.134Z,24.30
2018-07-22T10:00:54.936Z,26.60
2018-07-22T10:05:52.658Z,21.70
2018-07-22T10:10:50.191Z,28.93
2018-07-22T10:15:47.790Z,30.07
2018-07-22T10:20:45.312Z,29.63
2018-07-22T10:25:42.979Z,24.27
2018-07-22T10:30:40.602Z,22.17
2018-07-22T10:35:38.247Z,20.43
2018-07-22T10:40:35.766Z,16.03
2018-07-22T10:45:33.341Z,18.43
2018-07-22T10:50:30.918Z,18.17
2018-07-22T10:55:28.471Z,11.87
2018-07-22T11:00:26.039Z,15.27
2018-07-22T11:05:23.673Z,11.20
2018-07-22T11:10:21.204Z,12.50
2018-07-22T11:15:18.746Z,13.23
2018-07-22T11:20:16.332Z,7.53
2018-07-22T11:25:13.899Z,9.70
2018-07-22T11:30:11.444Z,8.50
2018-07-22T11:35:08.964Z,10.03
2018-07-22T11:40:06.527Z,9.80
2018-07-22T11:45:04.201Z,15.00
2018-07-22T11:50:01.756Z,8.17
2018-07-22T11:54:59.334Z,9.07
2018-07-22T11:59:56.896Z,9.33
2018-07-22T12:04:54.422Z,7.73
2018-07-22T12:09:51.968Z,7.40
2018-07-22T12:14:49.491Z,15.07
2018-07-22T12:19:46.988Z,9.87
2018-07-22T12:24:44.480Z,8.00
2018-07-22T12:29:41.996Z,6.87
2018-07-22T12:34:39.524Z,11.80
2018-07-22T12:39:40.273Z,6.50
2018-07-22T12:44:37.958Z,6.63
2018-07-22T12:49:35.527Z,6.43
2018-07-22T12:54:33.036Z,5.17
2018-07-22T12:59:30.628Z,12.50
2018-07-22T13:04:28.254Z,10.23
2018-07-22T13:09:25.807Z,6.10
2018-07-22T13:14:23.350Z,7.27
2018-07-22T13:19:20.900Z,6.50
2018-07-22T13:24:19.478Z,8.43
2018-07-22T13:29:31.393Z,6.20
2018-07-22T13:34:36.101Z,5.27
2018-07-22T13:39:40.521Z,7.93
2018-07-22T13:44:38.593Z,4.70
2018-07-22T13:49:36.142Z,6.63
2018-07-22T13:54:33.696Z,5.47
2018-07-22T13:59:31.742Z,5.63
2018-07-22T14:04:29.290Z,6.60
2018-07-22T14:09:26.799Z,6.80
2018-07-22T14:14:24.340Z,7.17
2018-07-22T14:19:23.640Z,12.20
2018-07-22T14:24:21.200Z,5.63
2018-07-22T14:29:18.725Z,6.80
2018-07-22T14:34:16.313Z,6.40
2018-07-22T14:39:13.893Z,7.93
2018-07-22T14:44:11.505Z,5.57
2018-07-22T14:49:09.895Z,5.10
2018-07-22T14:54:12.184Z,5.83
2018-07-22T14:59:11.354Z,5.10
2018-07-22T15:04:13.748Z,5.23
2018-07-22T15:09:11.711Z,4.80
2018-07-22T15:14:09.306Z,6.63
2018-07-22T15:19:12.041Z,10.33
2018-07-22T15:24:09.724Z,6.10
2018-07-22T15:29:09.460Z,5.00
2018-07-22T15:34:08.933Z,5.70
2018-07-22T15:39:08.925Z,5.30
2018-07-22T15:44:06.506Z,5.60
2018-07-22T15:49:04.723Z,11.30
2018-07-22T15:54:02.392Z,6.37
2018-07-22T15:59:01.938Z,4.27
2018-07-22T16:04:01.026Z,4.43
2018-07-22T16:08:59.423Z,5.40
2018-07-22T16:13:57.351Z,4.93
2018-07-22T16:18:57.311Z,6.30
2018-07-22T16:23:56.445Z,6.10
2018-07-22T16:28:54.028Z,5.67
2018-07-22T16:33:51.592Z,4.57
2018-07-22T16:38:49.200Z,4.70
2018-07-22T16:43:46.891Z,8.37
2018-07-22T16:48:45.820Z,5.23
2018-07-22T16:53:43.370Z,5.00
2018-07-22T16:58:42.261Z,4.93
2018-07-22T17:03:40.613Z,4.20
2018-07-22T17:08:38.164Z,4.73
2018-07-22T17:13:35.737Z,6.73
2018-07-22T17:18:33.245Z,4.83
2018-07-22T17:23:32.252Z,5.40
2018-07-22T17:28:29.928Z,4.57
2018-07-22T17:33:27.434Z,4.10
2018-07-22T17:38:24.968Z,5.00
2018-07-22T17:43:22.833Z,6.90
2018-07-22T17:48:20.376Z,4.87
2018-07-22T17:53:17.905Z,3.97
2018-07-22T17:58:15.473Z,4.20
2018-07-22T18:03:27.472Z,4.23
2018-07-22T18:08:25.090Z,6.50
2018-07-22T18:13:22.694Z,4.70
2018-07-22T18:18:20.248Z,4.23
2018-07-22T18:23:17.776Z,4.13
2018-07-22T18:28:15.730Z,4.57
2018-07-22T18:33:13.285Z,3.93
2018-07-22T18:38:14.807Z,3.67
2018-07-22T18:43:12.547Z,4.50
2018-07-22T18:48:10.116Z,4.07
2018-07-22T18:53:07.696Z,7.90
2018-07-22T18:58:05.211Z,6.13
2018-07-22T19:03:02.715Z,7.80
2018-07-22T19:08:00.231Z,4.50
2018-07-22T19:12:57.752Z,4.63
2018-07-22T19:17:55.281Z,4.77
2018-07-22T19:22:52.809Z,4.23
2018-07-22T19:27:50.529Z,4.00
2018-07-22T19:32:48.051Z,5.50
2018-07-22T19:37:48.952Z,4.10
2018-07-22T19:42:46.480Z,4.53
2018-07-22T19:47:44.028Z,5.60
2018-07-22T19:52:41.542Z,4.40
2018-07-22T19:57:39.069Z,5.50
2018-07-22T20:02:36.652Z,4.27
2018-07-22T20:07:34.154Z,9.67
2018-07-22T20:12:31.704Z,11.63
2018-07-22T20:17:29.475Z,5.77
2018-07-22T20:22:26.977Z,4.40
2018-07-22T20:27:25.558Z,5.03
2018-07-22T20:32:23.065Z,5.50
2018-07-22T20:37:20.564Z,4.20
2018-07-22T20:42:18.079Z,12.17
2018-07-22T20:47:18.029Z,5.33
2018-07-22T20:52:20.016Z,6.10
2018-07-22T20:57:23.403Z,7.10
2018-07-22T21:02:23.859Z,6.00
2018-07-22T21:07:25.548Z,5.87
2018-07-22T21:12:49.301Z,4.73
2018-07-22T21:17:47.861Z,5.63
2018-07-22T21:22:45.419Z,5.20
2018-07-22T21:27:42.944Z,4.10
2018-07-22T21:32:40.629Z,5.00
2018-07-22T21:37:38.432Z,4.80
2018-07-22T21:42:35.936Z,5.13
2018-07-22T21:47:33.622Z,9.40
2018-07-22T21:52:31.138Z,9.37
2018-07-22T21:57:28.658Z,4.80
2018-07-22T22:02:30.098Z,5.30
2018-07-22T22:07:27.647Z,6.70
2018-07-22T22:12:25.169Z,5.60
2018-07-22T22:17:22.733Z,6.63
2018-07-22T22:22:20.269Z,5.17
2018-07-22T22:27:17.816Z,6.83
2018-07-22T22:32:15.358Z,8.17
2018-07-22T22:37:12.863Z,4.40
2018-07-22T22:42:10.377Z,7.13
2018-07-22T22:47:07.940Z,4.50
2018-07-22T22:52:06.925Z,4.00
2018-07-22T22:57:04.457Z,5.53
2018-07-22T23:02:02.012Z,7.80
2018-07-22T23:06:59.530Z,5.00
2018-07-22T23:11:57.069Z,4.90
2018-07-22T23:16:54.574Z,5.40
2018-07-22T23:21:53.500Z,5.23
2018-07-22T23:26:50.999Z,6.83
2018-07-22T23:31:48.544Z,5.40
2018-07-22T23:36:46.045Z,10.97
2018-07-22T23:41:43.565Z,9.73
2018-07-22T23:46:43.932Z,7.40
2018-07-22T23:51:46.281Z,5.60
2018-07-22T23:56:43.806Z,5.60
